Varzea Paulista, Brazil
Current Conditions -  °F | °C
As of 1:00 PM on Saturday 25 Oct 2014 (Local Time) from SBKP Reporting Station
Scattered Clouds Scattered Clouds  
Wind Chill: 75°   Ceiling: Unl
Heat Index: 75°   Visibility: 6mi
Dew Point: 61°   Wind: 7mph
Humidity: 61%   Direction: 290°WNW
Pressure: 30.03"   Gusts: NA
Location:  23.2°S, 46.84°W
Report Text: SBKP 251500Z 29006KT 260V330 9999 SCT030 24/16 Q1017
Loading
Personal Weather Stations






























Interactive Weather Map
Tropical Storm Tracking
New forecast layout! Learn more

10-Day Weather Forecast

Advertisements
Track Severe Weather on mobile